sensor_id;sensor_type;location;lat;lon;timestamp;temperature;humidity
28959;DHT22;16066;0.000;0.000;2023-12-28T06:01:19;19.20;48.30
28959;DHT22;16066;0.000;0.000;2023-12-28T06:03:45;19.20;48.50
28959;DHT22;16066;0.000;0.000;2023-12-28T06:06:14;19.20;48.50
28959;DHT22;16066;0.000;0.000;2023-12-28T06:08:40;19.20;48.30
28959;DHT22;16066;0.000;0.000;2023-12-28T06:11:05;19.20;48.50
28959;DHT22;16066;0.000;0.000;2023-12-28T06:13:31;19.10;48.50
28959;DHT22;16066;0.000;0.000;2023-12-28T06:15:56;19.10;48.40
28959;DHT22;16066;0.000;0.000;2023-12-28T06:18:22;19.10;48.40
28959;DHT22;16066;0.000;0.000;2023-12-28T06:20:47;19.10;48.50
28959;DHT22;16066;0.000;0.000;2023-12-28T06:23:13;19.10;48.50
28959;DHT22;16066;0.000;0.000;2023-12-28T06:25:38;19.10;48.30
28959;DHT22;16066;0.000;0.000;2023-12-28T06:28:04;19.10;48.50
28959;DHT22;16066;0.000;0.000;2023-12-28T06:30:30;19.10;48.50
28959;DHT22;16066;0.000;0.000;2023-12-28T06:32:55;19.10;48.60
28959;DHT22;16066;0.000;0.000;2023-12-28T06:35:21;19.10;48.70
28959;DHT22;16066;0.000;0.000;2023-12-28T06:37:46;19.10;48.60
28959;DHT22;16066;0.000;0.000;2023-12-28T06:40:12;19.10;48.90
28959;DHT22;16066;0.000;0.000;2023-12-28T06:42:37;19.10;48.90
28959;DHT22;16066;0.000;0.000;2023-12-28T06:45:03;19.10;49.10
28959;DHT22;16066;0.000;0.000;2023-12-28T06:47:29;19.20;49.30
28959;DHT22;16066;0.000;0.000;2023-12-28T06:49:54;19.20;49.10
28959;DHT22;16066;0.000;0.000;2023-12-28T06:52:20;19.20;49.10
28959;DHT22;16066;0.000;0.000;2023-12-28T06:54:45;19.20;49.00
28959;DHT22;16066;0.000;0.000;2023-12-28T06:57:11;19.30;49.10
28959;DHT22;16066;0.000;0.000;2023-12-28T06:59:36;19.30;49.00
28959;DHT22;16066;0.000;0.000;2023-12-28T07:02:02;19.40;49.20
28959;DHT22;16066;0.000;0.000;2023-12-28T07:04:28;19.50;49.10
28959;DHT22;16066;0.000;0.000;2023-12-28T07:06:55;19.50;49.40
28959;DHT22;16066;0.000;0.000;2023-12-28T07:09:20;19.60;49.20
28959;DHT22;16066;0.000;0.000;2023-12-28T07:11:46;19.70;49.10
28959;DHT22;16066;0.000;0.000;2023-12-28T07:14:12;19.70;49.20
28959;DHT22;16066;0.000;0.000;2023-12-28T07:16:37;19.80;49.30
28959;DHT22;16066;0.000;0.000;2023-12-28T07:19:02;19.80;48.90
28959;DHT22;16066;0.000;0.000;2023-12-28T07:21:29;19.90;49.30
28959;DHT22;16066;0.000;0.000;2023-12-28T07:23:55;20.00;49.20
28959;DHT22;16066;0.000;0.000;2023-12-28T07:26:20;20.10;49.10
28959;DHT22;16066;0.000;0.000;2023-12-28T07:28:46;20.10;48.90
28959;DHT22;16066;0.000;0.000;2023-12-28T07:31:26;20.20;48.90
28959;DHT22;16066;0.000;0.000;2023-12-28T07:33:51;20.20;48.80
28959;DHT22;16066;0.000;0.000;2023-12-28T07:36:17;20.20;48.70
28959;DHT22;16066;0.000;0.000;2023-12-28T07:38:43;20.30;48.70
28959;DHT22;16066;0.000;0.000;2023-12-28T07:41:09;20.40;48.70
28959;DHT22;16066;0.000;0.000;2023-12-28T07:43:34;20.40;48.60
28959;DHT22;16066;0.000;0.000;2023-12-28T07:46:01;20.40;49.10
28959;DHT22;16066;0.000;0.000;2023-12-28T07:48:27;20.50;48.50
28959;DHT22;16066;0.000;0.000;2023-12-28T07:50:55;20.50;48.30
28959;DHT22;16066;0.000;0.000;2023-12-28T07:53:20;20.50;48.30
28959;DHT22;16066;0.000;0.000;2023-12-28T07:55:46;20.50;47.90
28959;DHT22;16066;0.000;0.000;2023-12-28T07:58:12;20.60;47.90
28959;DHT22;16066;0.000;0.000;2023-12-28T08:00:38;20.60;47.80
28959;DHT22;16066;0.000;0.000;2023-12-28T08:03:04;20.70;47.80
28959;DHT22;16066;0.000;0.000;2023-12-28T08:05:29;20.70;48.40
28959;DHT22;16066;0.000;0.000;2023-12-28T08:07:55;20.70;47.50
28959;DHT22;16066;0.000;0.000;2023-12-28T08:10:20;20.80;47.40
28959;DHT22;16066;0.000;0.000;2023-12-28T08:12:45;20.80;47.30
28959;DHT22;16066;0.000;0.000;2023-12-28T08:15:11;20.80;47.40
28959;DHT22;16066;0.000;0.000;2023-12-28T08:17:36;20.90;47.50
28959;DHT22;16066;0.000;0.000;2023-12-28T08:20:04;21.00;47.50
28959;DHT22;16066;0.000;0.000;2023-12-28T08:22:29;21.00;47.40
28959;DHT22;16066;0.000;0.000;2023-12-28T08:24:56;21.10;47.50
28959;DHT22;16066;0.000;0.000;2023-12-28T08:27:23;21.10;47.40
28959;DHT22;16066;0.000;0.000;2023-12-28T08:29:48;21.10;47.20
28959;DHT22;16066;0.000;0.000;2023-12-28T08:32:14;21.10;47.20
28959;DHT22;16066;0.000;0.000;2023-12-28T08:34:39;21.20;47.20
28959;DHT22;16066;0.000;0.000;2023-12-28T08:37:05;21.20;47.10
28959;DHT22;16066;0.000;0.000;2023-12-28T08:39:30;21.20;47.00
28959;DHT22;16066;0.000;0.000;2023-12-28T08:41:56;21.30;47.00
28959;DHT22;16066;0.000;0.000;2023-12-28T08:44:21;21.30;47.00
28959;DHT22;16066;0.000;0.000;2023-12-28T08:46:47;21.30;46.90
28959;DHT22;16066;0.000;0.000;2023-12-28T08:49:12;21.30;46.90
28959;DHT22;16066;0.000;0.000;2023-12-28T08:51:38;21.30;46.90
28959;DHT22;16066;0.000;0.000;2023-12-28T08:54:03;21.40;47.00
28959;DHT22;16066;0.000;0.000;2023-12-28T08:56:29;21.40;47.00
28959;DHT22;16066;0.000;0.000;2023-12-28T08:58:55;21.40;46.80
28959;DHT22;16066;0.000;0.000;2023-12-28T09:01:22;21.40;46.90
28959;DHT22;16066;0.000;0.000;2023-12-28T09:03:52;21.40;47.00
28959;DHT22;16066;0.000;0.000;2023-12-28T09:06:18;21.40;46.60
28959;DHT22;16066;0.000;0.000;2023-12-28T09:08:47;21.40;46.90
28959;DHT22;16066;0.000;0.000;2023-12-28T09:11:13;21.40;47.10
28959;DHT22;16066;0.000;0.000;2023-12-28T09:13:40;21.40;46.80
28959;DHT22;16066;0.000;0.000;2023-12-28T09:16:09;21.40;46.90
28959;DHT22;16066;0.000;0.000;2023-12-28T09:18:35;21.40;47.00
28959;DHT22;16066;0.000;0.000;2023-12-28T09:21:03;21.40;47.00
28959;DHT22;16066;0.000;0.000;2023-12-28T09:23:29;21.40;47.10
28959;DHT22;16066;0.000;0.000;2023-12-28T09:25:54;21.40;47.10
28959;DHT22;16066;0.000;0.000;2023-12-28T09:28:20;21.40;47.10
28959;DHT22;16066;0.000;0.000;2023-12-28T09:30:45;21.40;47.10
28959;DHT22;16066;0.000;0.000;2023-12-28T09:33:11;21.40;47.00
28959;DHT22;16066;0.000;0.000;2023-12-28T09:35:37;21.40;46.90
28959;DHT22;16066;0.000;0.000;2023-12-28T09:38:02;21.40;46.90
28959;DHT22;16066;0.000;0.000;2023-12-28T09:40:28;21.40;46.90
28959;DHT22;16066;0.000;0.000;2023-12-28T09:43:13;21.40;46.80
28959;DHT22;16066;0.000;0.000;2023-12-28T09:45:40;21.40;46.80
28959;DHT22;16066;0.000;0.000;2023-12-28T09:48:06;21.40;46.70
28959;DHT22;16066;0.000;0.000;2023-12-28T09:50:32;21.40;46.70
28959;DHT22;16066;0.000;0.000;2023-12-28T09:52:58;21.40;46.60
28959;DHT22;16066;0.000;0.000;2023-12-28T09:55:23;21.40;46.70
28959;DHT22;16066;0.000;0.000;2023-12-28T09:57:51;21.40;46.70
28959;DHT22;16066;0.000;0.000;2023-12-28T10:00:16;21.40;46.60
28959;DHT22;16066;0.000;0.000;2023-12-28T10:02:44;21.40;46.50
28959;DHT22;16066;0.000;0.000;2023-12-28T10:05:16;21.40;46.50
28959;DHT22;16066;0.000;0.000;2023-12-28T10:07:43;21.40;46.40
28959;DHT22;16066;0.000;0.000;2023-12-28T10:10:09;21.40;46.20
28959;DHT22;16066;0.000;0.000;2023-12-28T10:12:35;21.40;46.10
28959;DHT22;16066;0.000;0.000;2023-12-28T10:15:01;21.30;45.70
28959;DHT22;16066;0.000;0.000;2023-12-28T10:17:27;21.30;45.40
28959;DHT22;16066;0.000;0.000;2023-12-28T10:19:53;21.30;45.70
28959;DHT22;16066;0.000;0.000;2023-12-28T10:22:19;21.40;45.80
28959;DHT22;16066;0.000;0.000;2023-12-28T10:24:45;21.40;45.80
28959;DHT22;16066;0.000;0.000;2023-12-28T10:27:15;21.40;45.90
28959;DHT22;16066;0.000;0.000;2023-12-28T10:29:40;21.40;45.90
28959;DHT22;16066;0.000;0.000;2023-12-28T10:32:06;21.40;45.90
28959;DHT22;16066;0.000;0.000;2023-12-28T10:34:31;21.50;46.00
28959;DHT22;16066;0.000;0.000;2023-12-28T10:36:59;21.50;45.80
28959;DHT22;16066;0.000;0.000;2023-12-28T10:39:24;21.50;45.80
28959;DHT22;16066;0.000;0.000;2023-12-28T10:41:51;21.50;45.80
28959;DHT22;16066;0.000;0.000;2023-12-28T10:44:20;21.50;45.70
28959;DHT22;16066;0.000;0.000;2023-12-28T10:46:50;21.50;45.70
28959;DHT22;16066;0.000;0.000;2023-12-28T10:49:21;21.60;46.00
28959;DHT22;16066;0.000;0.000;2023-12-28T10:51:52;21.60;45.80
28959;DHT22;16066;0.000;0.000;2023-12-28T10:54:30;21.60;45.80
28959;DHT22;16066;0.000;0.000;2023-12-28T10:57:04;21.60;45.80
28959;DHT22;16066;0.000;0.000;2023-12-28T11:00:00;21.60;45.80
28959;DHT22;16066;0.000;0.000;2023-12-28T11:02:38;21.60;45.70
28959;DHT22;16066;0.000;0.000;2023-12-28T11:05:05;21.70;45.80
28959;DHT22;16066;0.000;0.000;2023-12-28T11:07:32;21.60;45.70
28959;DHT22;16066;0.000;0.000;2023-12-28T11:10:00;21.60;45.60
28959;DHT22;16066;0.000;0.000;2023-12-28T11:12:27;21.70;45.60
28959;DHT22;16066;0.000;0.000;2023-12-28T11:14:53;21.70;45.60
28959;DHT22;16066;0.000;0.000;2023-12-28T11:17:20;21.70;45.60
28959;DHT22;16066;0.000;0.000;2023-12-28T11:19:46;21.60;45.40
28959;DHT22;16066;0.000;0.000;2023-12-28T11:22:13;21.60;45.50
28959;DHT22;16066;0.000;0.000;2023-12-28T11:24:39;21.60;45.50
28959;DHT22;16066;0.000;0.000;2023-12-28T11:27:05;21.70;45.60
28959;DHT22;16066;0.000;0.000;2023-12-28T11:29:31;21.70;45.70
28959;DHT22;16066;0.000;0.000;2023-12-28T11:31:58;21.70;45.50
28959;DHT22;16066;0.000;0.000;2023-12-28T11:34:31;21.70;45.60
28959;DHT22;16066;0.000;0.000;2023-12-28T11:37:02;21.70;45.60
28959;DHT22;16066;0.000;0.000;2023-12-28T11:39:31;21.70;45.60
28959;DHT22;16066;0.000;0.000;2023-12-28T11:44:28;21.70;45.70
28959;DHT22;16066;0.000;0.000;2023-12-28T11:46:54;21.70;45.80
28959;DHT22;16066;0.000;0.000;2023-12-28T11:49:25;21.70;46.10
28959;DHT22;16066;0.000;0.000;2023-12-28T11:51:56;21.80;46.00
28959;DHT22;16066;0.000;0.000;2023-12-28T11:54:22;21.80;45.90
28959;DHT22;16066;0.000;0.000;2023-12-28T11:56:47;21.80;45.80
28959;DHT22;16066;0.000;0.000;2023-12-28T11:59:13;21.80;45.90
28959;DHT22;16066;0.000;0.000;2023-12-28T12:01:38;21.80;45.60
28959;DHT22;16066;0.000;0.000;2023-12-28T12:04:06;21.80;45.60
28959;DHT22;16066;0.000;0.000;2023-12-28T12:06:32;21.80;45.70
28959;DHT22;16066;0.000;0.000;2023-12-28T12:08:58;21.90;45.60
28959;DHT22;16066;0.000;0.000;2023-12-28T12:11:24;21.90;45.60
28959;DHT22;16066;0.000;0.000;2023-12-28T12:13:51;21.90;45.60
28959;DHT22;16066;0.000;0.000;2023-12-28T12:16:18;21.90;45.70
28959;DHT22;16066;0.000;0.000;2023-12-28T12:18:44;21.90;45.70
28959;DHT22;16066;0.000;0.000;2023-12-28T12:21:09;21.90;45.50
28959;DHT22;16066;0.000;0.000;2023-12-28T12:23:35;21.90;45.40
28959;DHT22;16066;0.000;0.000;2023-12-28T12:26:01;21.90;45.70
28959;DHT22;16066;0.000;0.000;2023-12-28T12:28:29;21.90;45.70
28959;DHT22;16066;0.000;0.000;2023-12-28T12:30:56;21.90;45.70
28959;DHT22;16066;0.000;0.000;2023-12-28T12:33:22;22.00;45.90
28959;DHT22;16066;0.000;0.000;2023-12-28T12:35:49;22.00;45.80
28959;DHT22;16066;0.000;0.000;2023-12-28T12:38:15;22.00;45.90
28959;DHT22;16066;0.000;0.000;2023-12-28T12:40:41;22.00;45.40
28959;DHT22;16066;0.000;0.000;2023-12-28T12:43:06;22.00;45.40
28959;DHT22;16066;0.000;0.000;2023-12-28T12:45:34;22.00;45.50
28959;DHT22;16066;0.000;0.000;2023-12-28T12:48:02;21.90;45.00
28959;DHT22;16066;0.000;0.000;2023-12-28T12:50:28;21.90;44.70
28959;DHT22;16066;0.000;0.000;2023-12-28T12:52:53;21.90;45.00
28959;DHT22;16066;0.000;0.000;2023-12-28T12:55:19;21.90;44.90
28959;DHT22;16066;0.000;0.000;2023-12-28T12:57:45;21.80;45.00
28959;DHT22;16066;0.000;0.000;2023-12-28T13:00:11;21.80;44.90
28959;DHT22;16066;0.000;0.000;2023-12-28T13:02:37;21.80;45.00
28959;DHT22;16066;0.000;0.000;2023-12-28T13:05:03;21.90;44.70
28959;DHT22;16066;0.000;0.000;2023-12-28T13:07:30;21.90;45.00
28959;DHT22;16066;0.000;0.000;2023-12-28T13:09:56;21.90;44.90
28959;DHT22;16066;0.000;0.000;2023-12-28T13:12:21;22.00;44.70
28959;DHT22;16066;0.000;0.000;2023-12-28T13:14:47;22.00;44.70
28959;DHT22;16066;0.000;0.000;2023-12-28T13:17:12;22.00;44.80
28959;DHT22;16066;0.000;0.000;2023-12-28T13:19:38;22.10;44.80
28959;DHT22;16066;0.000;0.000;2023-12-28T13:22:04;22.10;45.10
28959;DHT22;16066;0.000;0.000;2023-12-28T13:24:30;22.10;45.10
28959;DHT22;16066;0.000;0.000;2023-12-28T13:26:56;22.10;45.20
28959;DHT22;16066;0.000;0.000;2023-12-28T13:29:22;22.10;45.30
28959;DHT22;16066;0.000;0.000;2023-12-28T13:31:48;22.10;45.50
28959;DHT22;16066;0.000;0.000;2023-12-28T13:34:16;22.10;45.60
28959;DHT22;16066;0.000;0.000;2023-12-28T13:36:41;22.10;45.60
28959;DHT22;16066;0.000;0.000;2023-12-28T13:39:07;22.10;45.70
28959;DHT22;16066;0.000;0.000;2023-12-28T13:41:37;22.10;45.80
28959;DHT22;16066;0.000;0.000;2023-12-28T13:44:02;22.10;45.80
28959;DHT22;16066;0.000;0.000;2023-12-28T13:46:30;22.10;45.90
28959;DHT22;16066;0.000;0.000;2023-12-28T13:48:55;22.10;46.00
28959;DHT22;16066;0.000;0.000;2023-12-28T13:51:22;22.10;47.40
28959;DHT22;16066;0.000;0.000;2023-12-28T13:53:47;22.00;46.50
28959;DHT22;16066;0.000;0.000;2023-12-28T13:56:13;22.10;46.30
28959;DHT22;16066;0.000;0.000;2023-12-28T13:58:38;22.10;46.20
28959;DHT22;16066;0.000;0.000;2023-12-28T14:01:04;22.10;46.10
28959;DHT22;16066;0.000;0.000;2023-12-28T14:03:30;22.10;45.90
28959;DHT22;16066;0.000;0.000;2023-12-28T14:05:55;22.10;46.00
28959;DHT22;16066;0.000;0.000;2023-12-28T14:08:20;22.00;45.90
28959;DHT22;16066;0.000;0.000;2023-12-28T14:10:46;22.00;45.40
28959;DHT22;16066;0.000;0.000;2023-12-28T14:13:12;21.90;45.20
28959;DHT22;16066;0.000;0.000;2023-12-28T14:15:37;21.90;45.50
28959;DHT22;16066;0.000;0.000;2023-12-28T14:18:04;21.80;44.60
28959;DHT22;16066;0.000;0.000;2023-12-28T14:20:31;21.80;44.70
28959;DHT22;16066;0.000;0.000;2023-12-28T14:22:56;21.70;44.80
28959;DHT22;16066;0.000;0.000;2023-12-28T14:25:23;21.70;44.70
28959;DHT22;16066;0.000;0.000;2023-12-28T14:27:48;21.70;44.70
28959;DHT22;16066;0.000;0.000;2023-12-28T14:30:15;21.60;44.70
28959;DHT22;16066;0.000;0.000;2023-12-28T14:32:40;21.60;44.70
28959;DHT22;16066;0.000;0.000;2023-12-28T14:35:06;21.60;44.20
28959;DHT22;16066;0.000;0.000;2023-12-28T14:37:32;21.50;44.10
28959;DHT22;16066;0.000;0.000;2023-12-28T14:39:58;21.50;44.20
28959;DHT22;16066;0.000;0.000;2023-12-28T14:42:23;21.50;44.20
28959;DHT22;16066;0.000;0.000;2023-12-28T14:44:49;21.50;44.30
28959;DHT22;16066;0.000;0.000;2023-12-28T14:47:16;21.50;44.30
28959;DHT22;16066;0.000;0.000;2023-12-28T14:49:42;21.50;44.30
28959;DHT22;16066;0.000;0.000;2023-12-28T14:52:10;21.50;44.30
28959;DHT22;16066;0.000;0.000;2023-12-28T14:54:35;21.50;44.30
28959;DHT22;16066;0.000;0.000;2023-12-28T14:57:01;21.50;44.70
28959;DHT22;16066;0.000;0.000;2023-12-28T14:59:26;21.50;44.80
28959;DHT22;16066;0.000;0.000;2023-12-28T15:01:52;21.50;45.00
28959;DHT22;16066;0.000;0.000;2023-12-28T15:04:17;21.50;44.90
28959;DHT22;16066;0.000;0.000;2023-12-28T15:06:43;21.50;45.10
28959;DHT22;16066;0.000;0.000;2023-12-28T15:09:08;21.50;45.00
28959;DHT22;16066;0.000;0.000;2023-12-28T15:11:34;21.50;45.10
28959;DHT22;16066;0.000;0.000;2023-12-28T15:14:02;21.50;45.10
28959;DHT22;16066;0.000;0.000;2023-12-28T15:16:27;21.50;45.30
28959;DHT22;16066;0.000;0.000;2023-12-28T15:18:53;21.50;45.40
28959;DHT22;16066;0.000;0.000;2023-12-28T15:21:19;21.50;45.40
28959;DHT22;16066;0.000;0.000;2023-12-28T15:23:45;21.50;45.50
28959;DHT22;16066;0.000;0.000;2023-12-28T15:26:10;21.50;45.60
28959;DHT22;16066;0.000;0.000;2023-12-28T15:28:36;21.50;46.20
28959;DHT22;16066;0.000;0.000;2023-12-28T15:31:02;21.60;45.70
28959;DHT22;16066;0.000;0.000;2023-12-28T15:33:27;21.60;45.80
28959;DHT22;16066;0.000;0.000;2023-12-28T15:35:53;21.50;45.70
28959;DHT22;16066;0.000;0.000;2023-12-28T15:38:18;21.60;45.90
28959;DHT22;16066;0.000;0.000;2023-12-28T15:40:45;21.50;45.70
28959;DHT22;16066;0.000;0.000;2023-12-28T15:43:11;21.60;46.10
28959;DHT22;16066;0.000;0.000;2023-12-28T15:45:37;21.60;45.80
28959;DHT22;16066;0.000;0.000;2023-12-28T15:48:03;21.60;45.80
28959;DHT22;16066;0.000;0.000;2023-12-28T15:50:28;21.60;45.80
28959;DHT22;16066;0.000;0.000;2023-12-28T15:52:55;21.60;46.00
28959;DHT22;16066;0.000;0.000;2023-12-28T15:55:22;21.60;46.00
28959;DHT22;16066;0.000;0.000;2023-12-28T15:57:47;21.50;45.90
28959;DHT22;16066;0.000;0.000;2023-12-28T16:00:14;21.60;46.10
28959;DHT22;16066;0.000;0.000;2023-12-28T16:02:40;21.60;46.10
28959;DHT22;16066;0.000;0.000;2023-12-28T16:05:06;21.50;46.10
28959;DHT22;16066;0.000;0.000;2023-12-28T16:07:31;21.50;46.00
28959;DHT22;16066;0.000;0.000;2023-12-28T16:09:57;21.50;46.10
28959;DHT22;16066;0.000;0.000;2023-12-28T16:12:22;21.50;46.00
28959;DHT22;16066;0.000;0.000;2023-12-28T16:14:48;21.50;46.00
28959;DHT22;16066;0.000;0.000;2023-12-28T16:17:13;21.50;46.20
28959;DHT22;16066;0.000;0.000;2023-12-28T16:19:39;21.50;46.20
28959;DHT22;16066;0.000;0.000;2023-12-28T16:22:05;21.50;46.20
28959;DHT22;16066;0.000;0.000;2023-12-28T16:24:31;21.50;46.30
28959;DHT22;16066;0.000;0.000;2023-12-28T16:26:57;21.50;46.90
28959;DHT22;16066;0.000;0.000;2023-12-28T16:29:22;21.50;46.20
28959;DHT22;16066;0.000;0.000;2023-12-28T16:31:48;21.50;46.40
28959;DHT22;16066;0.000;0.000;2023-12-28T16:34:13;21.50;46.40
28959;DHT22;16066;0.000;0.000;2023-12-28T16:36:39;21.50;46.20
28959;DHT22;16066;0.000;0.000;2023-12-28T16:39:05;21.50;46.20
28959;DHT22;16066;0.000;0.000;2023-12-28T16:41:30;21.50;46.20
28959;DHT22;16066;0.000;0.000;2023-12-28T16:43:57;21.50;46.20
28959;DHT22;16066;0.000;0.000;2023-12-28T16:46:23;21.50;46.10
28959;DHT22;16066;0.000;0.000;2023-12-28T16:48:49;21.50;46.10
28959;DHT22;16066;0.000;0.000;2023-12-28T16:51:14;21.50;46.00
28959;DHT22;16066;0.000;0.000;2023-12-28T16:53:40;21.50;45.90
28959;DHT22;16066;0.000;0.000;2023-12-28T16:56:05;21.60;46.20
28959;DHT22;16066;0.000;0.000;2023-12-28T16:58:31;21.60;46.20
28959;DHT22;16066;0.000;0.000;2023-12-28T17:00:57;21.60;46.00
28959;DHT22;16066;0.000;0.000;2023-12-28T17:03:23;21.60;45.80
28959;DHT22;16066;0.000;0.000;2023-12-28T17:05:49;21.60;45.70
28959;DHT22;16066;0.000;0.000;2023-12-28T17:08:14;21.60;45.70
28959;DHT22;16066;0.000;0.000;2023-12-28T17:10:40;21.60;45.70
28959;DHT22;16066;0.000;0.000;2023-12-28T17:13:10;21.60;45.50
28959;DHT22;16066;0.000;0.000;2023-12-28T17:15:37;21.60;45.60
28959;DHT22;16066;0.000;0.000;2023-12-28T17:18:06;21.60;45.50
28959;DHT22;16066;0.000;0.000;2023-12-28T17:20:33;21.60;45.70
28959;DHT22;16066;0.000;0.000;2023-12-28T17:28:23;21.70;44.90
28959;DHT22;16066;0.000;0.000;2023-12-28T17:30:52;21.70;45.20
28959;DHT22;16066;0.000;0.000;2023-12-28T17:33:19;21.80;45.20
28959;DHT22;16066;0.000;0.000;2023-12-28T17:35:45;21.80;45.20
28959;DHT22;16066;0.000;0.000;2023-12-28T17:38:11;21.80;45.10
28959;DHT22;16066;0.000;0.000;2023-12-28T17:40:37;21.80;45.40
28959;DHT22;16066;0.000;0.000;2023-12-28T17:43:12;21.80;45.00
28959;DHT22;16066;0.000;0.000;2023-12-28T17:46:04;21.80;45.60
28959;DHT22;16066;0.000;0.000;2023-12-28T17:48:36;21.80;45.30
28959;DHT22;16066;0.000;0.000;2023-12-28T17:51:04;21.80;45.20
28959;DHT22;16066;0.000;0.000;2023-12-28T17:53:30;21.80;45.10
28959;DHT22;16066;0.000;0.000;2023-12-28T17:55:56;21.80;45.10
28959;DHT22;16066;0.000;0.000;2023-12-28T17:58:21;21.80;45.10
28959;DHT22;16066;0.000;0.000;2023-12-28T18:00:47;21.80;45.40
28959;DHT22;16066;0.000;0.000;2023-12-28T18:03:12;21.80;45.40
28959;DHT22;16066;0.000;0.000;2023-12-28T18:05:38;21.80;45.00
28959;DHT22;16066;0.000;0.000;2023-12-28T18:08:03;21.80;45.10
28959;DHT22;16066;0.000;0.000;2023-12-28T18:10:29;21.80;45.10
28959;DHT22;16066;0.000;0.000;2023-12-28T18:12:55;21.80;44.90
28959;DHT22;16066;0.000;0.000;2023-12-28T18:15:20;21.80;44.90
28959;DHT22;16066;0.000;0.000;2023-12-28T18:17:46;21.80;45.00
28959;DHT22;16066;0.000;0.000;2023-12-28T18:20:11;21.80;45.00
28959;DHT22;16066;0.000;0.000;2023-12-28T18:22:37;21.80;45.00
28959;DHT22;16066;0.000;0.000;2023-12-28T18:25:04;21.90;45.20
28959;DHT22;16066;0.000;0.000;2023-12-28T18:27:30;21.90;45.00
28959;DHT22;16066;0.000;0.000;2023-12-28T18:29:56;21.90;45.10
28959;DHT22;16066;0.000;0.000;2023-12-28T18:32:21;21.90;45.20
28959;DHT22;16066;0.000;0.000;2023-12-28T18:34:47;21.90;45.20
28959;DHT22;16066;0.000;0.000;2023-12-28T18:37:15;21.90;45.20
28959;DHT22;16066;0.000;0.000;2023-12-28T18:39:41;22.00;45.20
28959;DHT22;16066;0.000;0.000;2023-12-28T18:42:07;22.00;45.00
28959;DHT22;16066;0.000;0.000;2023-12-28T18:44:33;22.00;45.10
28959;DHT22;16066;0.000;0.000;2023-12-28T18:47:02;21.90;45.10
28959;DHT22;16066;0.000;0.000;2023-12-28T18:49:27;22.00;45.40
28959;DHT22;16066;0.000;0.000;2023-12-28T18:51:53;22.00;45.30
28959;DHT22;16066;0.000;0.000;2023-12-28T18:54:18;22.00;45.00
28959;DHT22;16066;0.000;0.000;2023-12-28T18:56:44;22.00;45.10
28959;DHT22;16066;0.000;0.000;2023-12-28T18:59:09;22.00;45.10
28959;DHT22;16066;0.000;0.000;2023-12-28T19:01:35;22.00;45.00
28959;DHT22;16066;0.000;0.000;2023-12-28T19:04:00;22.00;45.10
28959;DHT22;16066;0.000;0.000;2023-12-28T19:06:26;22.00;45.10
28959;DHT22;16066;0.000;0.000;2023-12-28T19:08:51;21.90;45.30
28959;DHT22;16066;0.000;0.000;2023-12-28T19:11:17;22.00;45.40
28959;DHT22;16066;0.000;0.000;2023-12-28T19:13:43;22.00;45.40
28959;DHT22;16066;0.000;0.000;2023-12-28T19:16:20;22.00;45.30
28959;DHT22;16066;0.000;0.000;2023-12-28T19:18:47;22.00;45.30
28959;DHT22;16066;0.000;0.000;2023-12-28T19:21:15;22.00;45.10
28959;DHT22;16066;0.000;0.000;2023-12-28T19:23:40;22.00;45.20
28959;DHT22;16066;0.000;0.000;2023-12-28T19:26:06;22.00;45.00
28959;DHT22;16066;0.000;0.000;2023-12-28T19:28:31;22.00;45.00
28959;DHT22;16066;0.000;0.000;2023-12-28T19:30:56;22.00;44.80
28959;DHT22;16066;0.000;0.000;2023-12-28T19:33:23;22.00;44.90
28959;DHT22;16066;0.000;0.000;2023-12-28T19:35:50;21.90;44.90
28959;DHT22;16066;0.000;0.000;2023-12-28T19:38:15;21.90;44.80
28959;DHT22;16066;0.000;0.000;2023-12-28T19:40:41;21.90;44.80
28959;DHT22;16066;0.000;0.000;2023-12-28T19:43:07;21.90;44.90
28959;DHT22;16066;0.000;0.000;2023-12-28T19:48:10;21.90;44.80
28959;DHT22;16066;0.000;0.000;2023-12-28T19:50:36;21.90;44.80
28959;DHT22;16066;0.000;0.000;2023-12-28T19:53:02;21.90;44.80
28959;DHT22;16066;0.000;0.000;2023-12-28T19:55:27;21.90;44.90
28959;DHT22;16066;0.000;0.000;2023-12-28T19:57:53;21.80;44.90
28959;DHT22;16066;0.000;0.000;2023-12-28T20:00:19;21.80;45.00
28959;DHT22;16066;0.000;0.000;2023-12-28T20:02:46;21.80;44.90
28959;DHT22;16066;0.000;0.000;2023-12-28T20:05:11;21.80;44.90
28959;DHT22;16066;0.000;0.000;2023-12-28T20:07:37;21.80;44.80
28959;DHT22;16066;0.000;0.000;2023-12-28T20:10:02;21.80;44.70
28959;DHT22;16066;0.000;0.000;2023-12-28T20:12:28;21.80;44.90
28959;DHT22;16066;0.000;0.000;2023-12-28T20:14:54;21.80;44.80
28959;DHT22;16066;0.000;0.000;2023-12-28T20:17:20;21.80;44.90
28959;DHT22;16066;0.000;0.000;2023-12-28T20:19:48;21.80;45.30
28959;DHT22;16066;0.000;0.000;2023-12-28T20:22:14;21.80;45.00
28959;DHT22;16066;0.000;0.000;2023-12-28T20:24:39;21.80;44.90
28959;DHT22;16066;0.000;0.000;2023-12-28T20:27:06;21.80;44.90
28959;DHT22;16066;0.000;0.000;2023-12-28T20:29:32;21.80;45.00
28959;DHT22;16066;0.000;0.000;2023-12-28T20:31:57;21.80;44.70
28959;DHT22;16066;0.000;0.000;2023-12-28T20:34:23;21.80;44.70
28959;DHT22;16066;0.000;0.000;2023-12-28T20:36:48;21.80;44.80
28959;DHT22;16066;0.000;0.000;2023-12-28T20:39:14;21.80;44.70
28959;DHT22;16066;0.000;0.000;2023-12-28T20:41:39;21.80;44.60
28959;DHT22;16066;0.000;0.000;2023-12-28T20:44:05;21.80;44.70
28959;DHT22;16066;0.000;0.000;2023-12-28T20:46:30;21.70;44.50
28959;DHT22;16066;0.000;0.000;2023-12-28T20:48:56;21.80;44.70
28959;DHT22;16066;0.000;0.000;2023-12-28T20:51:22;21.80;44.90
28959;DHT22;16066;0.000;0.000;2023-12-28T20:53:48;21.80;44.80
28959;DHT22;16066;0.000;0.000;2023-12-28T20:56:13;21.80;45.10
28959;DHT22;16066;0.000;0.000;2023-12-28T20:58:39;21.80;45.10
28959;DHT22;16066;0.000;0.000;2023-12-28T21:01:05;21.80;45.20
28959;DHT22;16066;0.000;0.000;2023-12-28T21:03:30;21.80;45.20
28959;DHT22;16066;0.000;0.000;2023-12-28T21:05:56;21.90;45.60
28959;DHT22;16066;0.000;0.000;2023-12-28T21:08:22;21.80;45.50
28959;DHT22;16066;0.000;0.000;2023-12-28T21:10:47;21.90;46.50
28959;DHT22;16066;0.000;0.000;2023-12-28T21:13:13;21.90;45.70
28959;DHT22;16066;0.000;0.000;2023-12-28T21:15:46;21.90;45.50
28959;DHT22;16066;0.000;0.000;2023-12-28T21:18:12;21.90;45.40
28959;DHT22;16066;0.000;0.000;2023-12-28T21:20:39;21.90;45.40
28959;DHT22;16066;0.000;0.000;2023-12-28T21:23:05;21.90;45.40
28959;DHT22;16066;0.000;0.000;2023-12-28T21:25:31;21.90;45.60
28959;DHT22;16066;0.000;0.000;2023-12-28T21:27:57;21.90;45.70
28959;DHT22;16066;0.000;0.000;2023-12-28T21:30:22;21.90;45.60
28959;DHT22;16066;0.000;0.000;2023-12-28T21:32:48;21.90;45.50
28959;DHT22;16066;0.000;0.000;2023-12-28T21:35:13;21.90;45.40
28959;DHT22;16066;0.000;0.000;2023-12-28T21:37:39;21.90;45.30
28959;DHT22;16066;0.000;0.000;2023-12-28T21:40:05;21.90;45.40
28959;DHT22;16066;0.000;0.000;2023-12-28T21:42:31;21.90;45.50
28959;DHT22;16066;0.000;0.000;2023-12-28T21:44:57;21.90;45.50
28959;DHT22;16066;0.000;0.000;2023-12-28T21:47:25;21.90;45.20
28959;DHT22;16066;0.000;0.000;2023-12-28T21:49:50;21.90;44.30